Time;durP1;ratioP1;P1;durP2;ratioP2;P2;SDS_P1;SDS_P2;PMS_P1;PMS_P2;Temp;Humidity;BMP_temperature;BMP_pressure;BME280_temperature;BME280_humidity;BME280_pressure;Samples;Min_cycle;Max_cycle;Signal;HPM_P1;HPM_P2
2021/12/11 00:02:28;;;;;;;6.38;2.03;;;;;;;3.14;100.00;99168.25;21017766;28;20578;-72
2021/12/11 00:12:36;;;;;;;3.35;1.67;;;;;;;3.02;100.00;99194.19;21018617;28;20063;-72
2021/12/11 00:22:41;;;;;;;4.43;2.00;;;;;;;3.05;100.00;99209.69;21017471;28;20531;-72
2021/12/11 00:32:43;;;;;;;5.78;2.33;;;;;;;2.96;100.00;99220.06;21017230;28;20563;-72
2021/12/11 00:42:51;;;;;;;7.47;3.30;;;;;;;2.95;100.00;99241.63;21017206;28;20497;-72
2021/12/11 00:52:57;;;;;;;5.88;3.00;;;;;;;2.92;100.00;99267.47;21017917;28;20044;-72
2021/12/11 01:02:59;;;;;;;4.85;2.25;;;;;;;2.83;100.00;99300.25;21013400;28;20073;-72
2021/12/11 01:13:03;;;;;;;5.90;2.33;;;;;;;2.89;100.00;99329.53;21014584;28;20520;-72
2021/12/11 01:23:27;;;;;;;6.28;2.83;;;;;;;2.81;100.00;99358.84;21013877;28;20654;-73
2021/12/11 01:33:29;;;;;;;6.63;2.35;;;;;;;2.74;100.00;99371.78;21009494;28;20060;-72
2021/12/11 01:43:35;;;;;;;5.15;2.63;;;;;;;2.75;100.00;99396.75;21010944;28;20047;-72
2021/12/11 01:53:43;;;;;;;6.50;2.90;;;;;;;2.69;99.50;99410.56;21011899;28;20037;-70
2021/12/11 02:03:45;;;;;;;4.80;2.60;;;;;;;2.69;99.47;99444.16;21011382;28;20546;-72
2021/12/11 02:13:53;;;;;;;4.78;2.60;;;;;;;2.67;99.55;99465.66;21010548;28;20044;-71
2021/12/11 02:24:03;;;;;;;4.55;2.53;;;;;;;2.53;99.71;99489.75;21012447;28;20048;-71
2021/12/11 02:34:28;;;;;;;4.82;2.60;;;;;;;2.55;99.99;99513.03;21011597;28;20718;-72
2021/12/11 02:44:47;;;;;;;5.53;3.42;;;;;;;2.52;100.00;99523.34;21006855;28;20056;-71
2021/12/11 02:54:56;;;;;;;6.38;3.30;;;;;;;2.53;99.67;99556.09;21023002;28;20036;-72
2021/12/11 03:05:08;;;;;;;6.00;3.17;;;;;;;2.52;99.97;99569.88;21023552;28;20078;-72
2021/12/11 03:15:11;;;;;;;4.82;2.88;;;;;;;2.48;99.33;99604.28;21024197;28;20048;-72
2021/12/11 03:25:17;;;;;;;5.88;3.42;;;;;;;2.48;99.72;99615.50;21021554;28;20074;-72
2021/12/11 03:35:19;;;;;;;7.10;4.10;;;;;;;2.49;100.00;99642.19;21023855;28;20500;-71
2021/12/11 03:45:25;;;;;;;6.53;4.10;;;;;;;2.48;100.00;99672.34;21022357;28;20106;-70
2021/12/11 03:55:32;;;;;;;9.15;4.68;;;;;;;2.58;99.40;99688.75;21022827;28;20496;-72
2021/12/11 04:05:38;;;;;;;7.47;4.65;;;;;;;2.63;99.05;99712.91;21018272;28;20078;-71
2021/12/11 04:15:42;;;;;;;7.13;4.57;;;;;;;2.54;99.14;99728.38;21018268;28;20106;-71
2021/12/11 04:25:48;;;;;;;7.93;4.80;;;;;;;2.56;99.18;99747.31;21019170;28;20485;-71
2021/12/11 04:35:50;;;;;;;8.68;5.35;;;;;;;2.54;99.24;99764.56;21016878;28;20040;-72
2021/12/11 04:45:59;;;;;;;9.43;5.80;;;;;;;2.65;98.99;99788.75;21018020;28;20045;-71
2021/12/11 04:56:27;;;;;;;9.13;5.55;;;;;;;2.58;99.42;99799.88;21015862;28;20467;-72
2021/12/11 05:16:34;;;;;;;10.00;6.15;;;;;;;2.62;99.41;99850.72;21014381;28;20078;-72
2021/12/11 05:26:36;;;;;;;8.13;5.40;;;;;;;2.56;99.39;99872.22;21011822;28;20056;-72
2021/12/11 05:36:38;;;;;;;11.20;6.68;;;;;;;2.58;99.51;99893.78;21013420;28;20044;-72
2021/12/11 05:46:40;;;;;;;12.38;6.97;;;;;;;2.61;99.44;99907.59;21010502;28;20056;-72
2021/12/11 05:56:43;;;;;;;12.02;7.22;;;;;;;2.64;99.84;99930.88;21013956;28;20676;-72
2021/12/11 06:06:46;;;;;;;11.05;6.50;;;;;;;2.64;99.82;99952.44;21011138;28;20125;-72
2021/12/11 06:16:51;;;;;;;10.18;6.57;;;;;;;2.62;99.27;99974.78;21011505;28;20041;-74
2021/12/11 06:26:54;;;;;;;13.93;7.47;;;;;;;2.68;99.70;99985.19;21019513;28;20044;-72
2021/12/11 06:36:56;;;;;;;14.60;7.82;;;;;;;2.65;99.86;100003.25;21029430;28;20664;-73
2021/12/11 06:47:01;;;;;;;11.73;7.20;;;;;;;2.64;99.38;100029.97;21027824;28;20048;-73
2021/12/11 06:57:03;;;;;;;12.40;7.65;;;;;;;2.63;99.44;100054.06;21025660;28;20052;-73
2021/12/11 07:07:05;;;;;;;15.00;8.20;;;;;;;2.58;99.83;100081.56;21025910;28;20048;-73
2021/12/11 07:17:07;;;;;;;13.10;7.75;;;;;;;2.48;100.00;100115.91;21023504;28;20495;-72
2021/12/11 07:27:10;;;;;;;12.68;8.07;;;;;;;2.40;100.00;100139.09;21025316;28;20141;-72
2021/12/11 07:37:11;;;;;;;13.57;8.07;;;;;;;2.32;100.00;100171.69;21021294;28;20048;-71
2021/12/11 07:47:13;;;;;;;15.20;8.82;;;;;;;2.21;100.00;100197.38;21023952;28;20562;-72
2021/12/11 07:57:15;;;;;;;14.15;8.60;;;;;;;2.30;100.00;100220.75;21021985;28;20049;-71
2021/12/11 08:07:16;;;;;;;30.73;14.35;;;;;;;2.38;100.00;100248.41;21026093;28;20150;-73
2021/12/11 08:17:19;;;;;;;22.55;11.98;;;;;;;2.38;100.00;100261.31;21029873;28;20110;-72
2021/12/11 08:27:22;;;;;;;23.73;12.52;;;;;;;2.30;100.00;100272.44;21018181;28;20093;-72
2021/12/11 08:37:25;;;;;;;22.30;12.75;;;;;;;2.39;100.00;100296.66;21026384;28;20052;-73
2021/12/11 08:47:26;;;;;;;20.08;11.82;;;;;;;2.67;100.00;100319.47;21014943;28;20054;-73
2021/12/11 08:57:30;;;;;;;21.90;12.48;;;;;;;2.93;100.00;100326.78;21014679;28;20051;-73
2021/12/11 09:07:37;;;;;;;20.20;11.90;;;;;;;3.38;99.61;100351.50;21014056;28;20085;-73
2021/12/11 09:17:49;;;;;;;22.55;12.23;;;;;;;3.68;98.44;100362.22;21014693;28;20138;-74
2021/12/11 09:27:50;;;;;;;16.52;10.38;;;;;;;4.05;96.13;100398.88;21013856;28;20054;-73
2021/12/11 09:37:59;;;;;;;16.50;9.70;;;;;;;3.95;91.04;100413.47;21010149;28;20048;-73
2021/12/11 09:48:07;;;;;;;14.75;9.23;;;;;;;4.00;90.23;100432.50;21007745;28;20044;-73
2021/12/11 09:58:13;;;;;;;16.02;10.10;;;;;;;3.92;90.44;100441.91;21010358;28;20492;-73
2021/12/11 10:08:30;;;;;;;18.85;11.63;;;;;;;3.97;90.42;100449.72;21004130;28;20048;-73
2021/12/11 10:18:35;;;;;;;15.40;9.05;;;;;;;4.08;88.80;100453.34;21010507;28;20056;-73
2021/12/11 10:28:40;;;;;;;12.52;7.72;;;;;;;4.39;86.44;100470.06;21008589;28;20064;-74
2021/12/11 10:38:44;;;;;;;14.02;7.68;;;;;;;4.29;83.75;100482.06;21009607;28;20117;-74
2021/12/11 10:48:57;;;;;;;16.43;8.93;;;;;;;4.29;86.06;100496.75;21006508;28;20078;-74
2021/12/11 10:59:04;;;;;;;14.18;7.93;;;;;;;4.49;85.36;100504.75;21011961;28;20044;-74
2021/12/11 11:09:09;;;;;;;11.50;6.60;;;;;;;4.72;81.83;100523.13;21008203;28;20048;-73
2021/12/11 11:19:10;;;;;;;13.57;7.37;;;;;;;4.59;82.34;100530.78;21020878;28;20526;-75
2021/12/11 11:29:19;;;;;;;13.68;6.55;;;;;;;4.43;81.59;100540.97;21021617;28;20066;-74
2021/12/11 11:39:23;;;;;;;9.77;5.88;;;;;;;4.36;80.22;100543.50;21018410;28;20109;-74
2021/12/11 11:49:26;;;;;;;12.53;6.70;;;;;;;4.38;80.00;100548.72;21023296;28;20040;-72
2021/12/11 11:59:28;;;;;;;11.50;6.35;;;;;;;4.53;77.76;100560.97;21044134;28;20622;-73
2021/12/11 12:09:34;;;;;;;9.57;5.25;;;;;;;4.46;77.16;100569.56;21019198;28;20051;-73
2021/12/11 12:19:36;;;;;;;11.45;6.20;;;;;;;4.59;77.57;100574.00;21016745;28;20048;-74
2021/12/11 12:29:40;;;;;;;10.70;5.70;;;;;;;4.65;78.87;100584.47;21016774;28;20074;-73
2021/12/11 12:39:50;;;;;;;10.25;5.50;;;;;;;4.61;76.20;100587.88;21016055;28;20048;-73
2021/12/11 12:49:55;;;;;;;11.07;6.10;;;;;;;4.58;79.24;100595.59;21012334;28;20447;-74
2021/12/11 13:00:04;;;;;;;10.50;5.90;;;;;;;4.89;77.00;100597.69;21012306;28;20044;-74
2021/12/11 13:10:12;;;;;;;8.90;4.60;;;;;;;5.25;72.55;100609.28;21013696;28;20094;-71
2021/12/11 13:20:42;;;;;;;10.38;4.53;;;;;;;5.33;71.87;100625.81;21035573;28;20101;-71
2021/12/11 13:30:57;;;;;;;8.32;4.25;;;;;;;5.09;73.33;100643.75;21016190;28;20090;-71
2021/12/11 13:41:04;;;;;;;9.70;4.73;;;;;;;5.08;73.94;100675.75;21034394;28;20048;-72
2021/12/11 13:51:10;;;;;;;9.70;5.18;;;;;;;5.03;73.22;100685.16;21009326;28;20497;-72
2021/12/11 14:01:18;;;;;;;10.77;6.30;;;;;;;4.91;76.54;100708.41;21007412;28;20117;-72
2021/12/11 14:11:19;;;;;;;11.27;6.43;;;;;;;4.88;78.33;100728.25;21010888;28;20059;-74
2021/12/11 14:21:21;;;;;;;14.65;7.25;;;;;;;4.74;79.70;100745.34;21007088;28;20052;-72
2021/12/11 14:31:25;;;;;;;13.23;7.25;;;;;;;4.63;81.57;100770.28;21008527;28;20101;-72
2021/12/11 14:41:31;;;;;;;16.50;9.43;;;;;;;4.58;83.39;100792.69;21005019;28;20056;-72
2021/12/11 14:51:34;;;;;;;18.13;10.55;;;;;;;4.50;86.51;100815.91;21021637;28;20344;-72
2021/12/11 15:01:44;;;;;;;16.08;9.18;;;;;;;4.53;85.47;100831.50;21024440;28;20122;-72
2021/12/11 15:11:49;;;;;;;18.10;9.60;;;;;;;4.43;87.22;100845.19;21022981;28;20113;-72
2021/12/11 15:21:51;;;;;;;21.43;12.13;;;;;;;4.42;88.20;100859.00;21021815;28;20546;-73
2021/12/11 15:31:58;;;;;;;20.15;10.95;;;;;;;4.30;88.64;100871.75;21021216;28;20040;-72
2021/12/11 15:42:01;;;;;;;17.80;10.77;;;;;;;4.36;89.92;100872.75;21029628;28;20044;-72
2021/12/11 15:52:04;;;;;;;19.63;10.82;;;;;;;4.28;91.03;100889.00;21046727;28;20259;-71
2021/12/11 16:02:06;;;;;;;21.80;11.63;;;;;;;4.36;91.10;100901.25;21042581;28;20526;-72
2021/12/11 16:12:12;;;;;;;20.50;11.27;;;;;;;4.32;92.14;100904.63;21038342;28;20428;-72
2021/12/11 16:22:38;;;;;;;27.30;19.27;;;;;;;4.31;92.11;100926.22;21019587;28;20040;-72
2021/12/11 16:32:40;;;;;;;15.55;9.32;;;;;;;4.35;92.54;100953.91;21037041;28;20044;-73
2021/12/11 16:43:04;;;;;;;13.77;8.35;;;;;;;4.30;93.81;100970.25;21013513;28;20052;-72
2021/12/11 16:53:06;;;;;;;15.50;8.85;;;;;;;4.30;93.32;100968.53;21014009;28;20137;-72
2021/12/11 17:03:08;;;;;;;14.23;8.15;;;;;;;4.33;93.82;100976.38;21011903;28;20075;-72
2021/12/11 17:13:12;;;;;;;14.50;7.93;;;;;;;4.30;93.78;100984.06;21014012;28;20448;-72
2021/12/11 17:23:14;;;;;;;14.60;8.55;;;;;;;4.31;94.39;101001.41;21011824;28;20063;-73
2021/12/11 17:33:16;;;;;;;14.93;8.00;;;;;;;4.34;93.73;101018.72;21014525;28;20093;-72
2021/12/11 17:43:19;;;;;;;17.58;8.73;;;;;;;4.29;94.96;101034.19;21010839;28;20114;-72
2021/12/11 17:53:20;;;;;;;14.85;8.38;;;;;;;4.29;94.96;101036.78;21014478;28;20345;-73
2021/12/11 18:03:22;;;;;;;14.38;8.07;;;;;;;4.23;95.54;101044.44;21015764;28;20106;-72
2021/12/11 18:13:30;;;;;;;16.13;8.77;;;;;;;4.24;95.78;101048.75;21007720;28;20044;-72
2021/12/11 18:23:33;;;;;;;16.90;8.63;;;;;;;4.26;95.13;101064.34;21015948;28;20044;-72
2021/12/11 18:33:37;;;;;;;16.80;8.48;;;;;;;4.18;95.46;101079.75;21007443;28;20052;-73
2021/12/11 18:43:41;;;;;;;18.73;11.30;;;;;;;4.09;95.14;101110.66;21012775;28;20135;-73
2021/12/11 18:53:45;;;;;;;18.07;10.50;;;;;;;4.09;95.31;101121.88;21017746;28;20536;-72
2021/12/11 19:03:56;;;;;;;16.50;9.65;;;;;;;3.98;97.50;101128.56;21029685;28;20048;-72
2021/12/11 19:14:00;;;;;;;16.55;9.73;;;;;;;3.90;98.06;101136.97;21005321;28;20052;-72
2021/12/11 19:24:05;;;;;;;18.97;11.13;;;;;;;3.88;98.05;101138.66;21018155;28;20097;-72
2021/12/11 19:34:07;;;;;;;23.77;13.27;;;;;;;3.83;99.06;101160.16;21032121;28;20056;-71
2021/12/11 19:44:10;;;;;;;20.90;11.23;;;;;;;3.83;98.95;101170.53;21045999;28;20053;-72
2021/12/11 19:54:17;;;;;;;23.83;14.00;;;;;;;3.85;98.88;101186.97;21020112;28;20044;-72
2021/12/11 20:04:22;;;;;;;21.30;11.90;;;;;;;3.80;99.06;101193.75;21016649;28;20060;-72
2021/12/11 20:14:24;;;;;;;;;;;;;;;3.72;99.73;101203.03;21047090;28;20116;-72
2021/12/11 20:24:28;;;;;;;22.75;12.95;;;;;;;3.58;99.33;101210.47;21033368;28;20322;-71
2021/12/11 20:34:31;;;;;;;21.60;12.00;;;;;;;3.36;100.00;101225.41;21016437;28;20082;-72
2021/12/11 20:44:40;;;;;;;25.27;11.77;;;;;;;3.33;99.16;101239.13;21019195;28;20043;-72
2021/12/11 20:54:53;;;;;;;18.83;9.52;;;;;;;3.30;97.58;101242.50;21030001;28;20489;-72
2021/12/11 21:05:04;;;;;;;18.77;8.68;;;;;;;3.22;97.62;101256.97;21027018;28;20093;-71
2021/12/11 21:15:15;;;;;;;21.15;9.00;;;;;;;3.11;97.58;101280.75;21025211;28;20417;-72
2021/12/11 21:25:24;;;;;;;16.45;8.75;;;;;;;2.96;98.12;101283.78;21016389;28;20059;-71
2021/12/11 21:35:30;;;;;;;22.83;9.38;;;;;;;2.88;98.72;101290.47;21016073;28;20048;-71
2021/12/11 21:45:48;;;;;;;20.08;7.03;;;;;;;2.97;97.44;101307.13;21016517;28;20917;-71
2021/12/11 21:55:50;;;;;;;14.55;6.10;;;;;;;2.97;94.51;101311.41;21014742;28;20486;-71
2021/12/11 22:06:00;;;;;;;13.70;6.68;;;;;;;2.90;95.05;101319.84;21014837;28;20097;-72
2021/12/11 22:16:16;;;;;;;16.33;5.93;;;;;;;2.86;95.54;101343.84;21015252;28;20036;-71
2021/12/11 22:26:30;;;;;;;12.75;4.65;;;;;;;2.86;95.01;101355.06;21012745;28;20101;-70
2021/12/11 22:36:32;;;;;;;12.07;5.20;;;;;;;2.80;95.46;101350.59;21029648;28;20121;-73
2021/12/11 22:46:36;;;;;;;13.02;5.03;;;;;;;2.69;95.63;101362.31;21053061;28;20111;-71
2021/12/11 22:56:42;;;;;;;13.68;4.63;;;;;;;2.80;95.19;101368.69;21033483;28;20116;-71
2021/12/11 23:06:45;;;;;;;14.73;5.55;;;;;;;2.92;94.34;101355.25;21022948;28;20104;-72
2021/12/11 23:16:54;;;;;;;13.77;5.45;;;;;;;2.98;92.94;101354.56;21033769;28;20045;-73
2021/12/11 23:27:02;;;;;;;12.98;4.50;;;;;;;3.19;91.17;101349.16;21034851;28;20105;-71
2021/12/11 23:37:09;;;;;;;9.88;3.75;;;;;;;3.17;90.56;101358.59;21032553;28;20090;-71
2021/12/11 23:47:15;;;;;;;10.80;3.95;;;;;;;3.22;90.27;101382.91;21033501;28;20063;-71
2021/12/11 23:57:21;;;;;;;11.10;4.10;;;;;;;3.25;89.85;101391.59;21030289;28;20044;-70
